sensor_id;sensor_type;location;lat;lon;timestamp;P1;durP1;ratioP1;P2;durP2;ratioP2
84614;SDS011;74845;51.204;22.580;2024-01-30T00:00:19;12.40;;;10.13;;
84614;SDS011;74845;51.204;22.580;2024-01-30T00:02:46;10.25;;;9.13;;
84614;SDS011;74845;51.204;22.580;2024-01-30T00:05:12;12.70;;;9.75;;
84614;SDS011;74845;51.204;22.580;2024-01-30T00:07:39;11.52;;;10.00;;
84614;SDS011;74845;51.204;22.580;2024-01-30T00:10:06;11.65;;;9.20;;
84614;SDS011;74845;51.204;22.580;2024-01-30T00:12:33;10.27;;;8.30;;
84614;SDS011;74845;51.204;22.580;2024-01-30T00:15:00;10.70;;;9.20;;
84614;SDS011;74845;51.204;22.580;2024-01-30T00:17:27;11.38;;;9.63;;
84614;SDS011;74845;51.204;22.580;2024-01-30T00:19:53;14.25;;;10.68;;
84614;SDS011;74845;51.204;22.580;2024-01-30T00:22:20;10.52;;;9.48;;
84614;SDS011;74845;51.204;22.580;2024-01-30T00:24:47;16.55;;;8.73;;
84614;SDS011;74845;51.204;22.580;2024-01-30T00:27:14;13.32;;;8.98;;
84614;SDS011;74845;51.204;22.580;2024-01-30T00:29:41;9.95;;;8.35;;
84614;SDS011;74845;51.204;22.580;2024-01-30T00:32:07;11.00;;;9.75;;
84614;SDS011;74845;51.204;22.580;2024-01-30T00:34:34;10.55;;;8.98;;
84614;SDS011;74845;51.204;22.580;2024-01-30T00:37:01;11.40;;;9.15;;
84614;SDS011;74845;51.204;22.580;2024-01-30T00:39:28;9.63;;;8.63;;
84614;SDS011;74845;51.204;22.580;2024-01-30T00:41:55;10.07;;;9.07;;
84614;SDS011;74845;51.204;22.580;2024-01-30T00:44:21;11.38;;;10.07;;
84614;SDS011;74845;51.204;22.580;2024-01-30T00:46:48;9.57;;;8.63;;
84614;SDS011;74845;51.204;22.580;2024-01-30T00:49:15;11.52;;;9.20;;
84614;SDS011;74845;51.204;22.580;2024-01-30T00:51:41;8.27;;;7.30;;
84614;SDS011;74845;51.204;22.580;2024-01-30T00:54:08;9.63;;;8.63;;
84614;SDS011;74845;51.204;22.580;2024-01-30T00:56:35;10.85;;;9.55;;
84614;SDS011;74845;51.204;22.580;2024-01-30T00:59:02;10.88;;;9.48;;
84614;SDS011;74845;51.204;22.580;2024-01-30T01:01:29;11.20;;;8.50;;
84614;SDS011;74845;51.204;22.580;2024-01-30T01:03:55;10.82;;;9.63;;
84614;SDS011;74845;51.204;22.580;2024-01-30T01:06:22;9.15;;;8.13;;
84614;SDS011;74845;51.204;22.580;2024-01-30T01:08:49;11.18;;;9.38;;
84614;SDS011;74845;51.204;22.580;2024-01-30T01:11:16;13.18;;;9.25;;
84614;SDS011;74845;51.204;22.580;2024-01-30T01:13:42;11.10;;;9.90;;
84614;SDS011;74845;51.204;22.580;2024-01-30T01:16:09;9.98;;;8.95;;
84614;SDS011;74845;51.204;22.580;2024-01-30T01:18:36;11.35;;;9.13;;
84614;SDS011;74845;51.204;22.580;2024-01-30T01:21:03;10.30;;;9.10;;
84614;SDS011;74845;51.204;22.580;2024-01-30T01:23:31;10.02;;;8.93;;
84614;SDS011;74845;51.204;22.580;2024-01-30T01:25:57;10.25;;;8.60;;
84614;SDS011;74845;51.204;22.580;2024-01-30T01:28:27;9.82;;;8.68;;
84614;SDS011;74845;51.204;22.580;2024-01-30T01:30:54;13.00;;;9.57;;
84614;SDS011;74845;51.204;22.580;2024-01-30T01:33:25;7.93;;;7.13;;
84614;SDS011;74845;51.204;22.580;2024-01-30T01:35:52;11.43;;;9.32;;
84614;SDS011;74845;51.204;22.580;2024-01-30T01:38:19;10.73;;;8.05;;
84614;SDS011;74845;51.204;22.580;2024-01-30T01:40:46;8.73;;;7.85;;
84614;SDS011;74845;51.204;22.580;2024-01-30T01:43:13;9.90;;;8.75;;
84614;SDS011;74845;51.204;22.580;2024-01-30T01:45:40;10.38;;;8.63;;
84614;SDS011;74845;51.204;22.580;2024-01-30T01:48:06;10.38;;;8.10;;
84614;SDS011;74845;51.204;22.580;2024-01-30T01:50:35;8.68;;;7.82;;
84614;SDS011;74845;51.204;22.580;2024-01-30T01:53:03;7.10;;;6.47;;
84614;SDS011;74845;51.204;22.580;2024-01-30T01:55:30;8.18;;;7.47;;
84614;SDS011;74845;51.204;22.580;2024-01-30T01:57:58;8.77;;;6.50;;
84614;SDS011;74845;51.204;22.580;2024-01-30T02:00:25;7.70;;;6.90;;
84614;SDS011;74845;51.204;22.580;2024-01-30T02:02:53;11.10;;;8.20;;
84614;SDS011;74845;51.204;22.580;2024-01-30T02:05:21;8.20;;;7.40;;
84614;SDS011;74845;51.204;22.580;2024-01-30T02:07:48;8.77;;;7.95;;
84614;SDS011;74845;51.204;22.580;2024-01-30T02:10:15;7.25;;;6.45;;
84614;SDS011;74845;51.204;22.580;2024-01-30T02:12:42;8.40;;;7.10;;
84614;SDS011;74845;51.204;22.580;2024-01-30T02:15:13;7.45;;;6.72;;
84614;SDS011;74845;51.204;22.580;2024-01-30T02:17:40;8.15;;;7.10;;
84614;SDS011;74845;51.204;22.580;2024-01-30T02:20:07;7.10;;;6.43;;
84614;SDS011;74845;51.204;22.580;2024-01-30T02:22:35;11.90;;;7.38;;
84614;SDS011;74845;51.204;22.580;2024-01-30T02:25:04;8.90;;;7.85;;
84614;SDS011;74845;51.204;22.580;2024-01-30T02:27:31;8.80;;;7.85;;
84614;SDS011;74845;51.204;22.580;2024-01-30T02:29:57;8.90;;;7.82;;
84614;SDS011;74845;51.204;22.580;2024-01-30T02:32:24;9.00;;;8.05;;
84614;SDS011;74845;51.204;22.580;2024-01-30T02:34:51;8.68;;;7.63;;
84614;SDS011;74845;51.204;22.580;2024-01-30T02:37:17;11.73;;;8.73;;
84614;SDS011;74845;51.204;22.580;2024-01-30T02:39:44;9.40;;;7.70;;
84614;SDS011;74845;51.204;22.580;2024-01-30T02:42:11;9.35;;;7.72;;
84614;SDS011;74845;51.204;22.580;2024-01-30T02:44:38;7.90;;;7.07;;
84614;SDS011;74845;51.204;22.580;2024-01-30T02:47:05;10.95;;;9.02;;
84614;SDS011;74845;51.204;22.580;2024-01-30T02:49:31;9.90;;;8.85;;
84614;SDS011;74845;51.204;22.580;2024-01-30T02:51:58;10.35;;;8.93;;
84614;SDS011;74845;51.204;22.580;2024-01-30T02:54:25;9.43;;;8.43;;
84614;SDS011;74845;51.204;22.580;2024-01-30T02:56:52;10.73;;;8.40;;
84614;SDS011;74845;51.204;22.580;2024-01-30T02:59:19;9.43;;;8.35;;
84614;SDS011;74845;51.204;22.580;2024-01-30T03:01:45;6.90;;;6.13;;
84614;SDS011;74845;51.204;22.580;2024-01-30T03:04:13;7.10;;;6.45;;
84614;SDS011;74845;51.204;22.580;2024-01-30T03:06:44;8.55;;;6.75;;
84614;SDS011;74845;51.204;22.580;2024-01-30T03:09:15;8.98;;;7.97;;
84614;SDS011;74845;51.204;22.580;2024-01-30T03:11:43;8.05;;;6.65;;
84614;SDS011;74845;51.204;22.580;2024-01-30T03:14:09;8.40;;;6.72;;
84614;SDS011;74845;51.204;22.580;2024-01-30T03:16:39;10.43;;;7.65;;
84614;SDS011;74845;51.204;22.580;2024-01-30T03:19:06;9.27;;;7.22;;
84614;SDS011;74845;51.204;22.580;2024-01-30T03:21:34;10.52;;;8.23;;
84614;SDS011;74845;51.204;22.580;2024-01-30T03:24:01;7.78;;;5.65;;
84614;SDS011;74845;51.204;22.580;2024-01-30T03:26:28;8.88;;;7.60;;
84614;SDS011;74845;51.204;22.580;2024-01-30T03:28:55;8.60;;;7.05;;
84614;SDS011;74845;51.204;22.580;2024-01-30T03:31:22;7.30;;;6.60;;
84614;SDS011;74845;51.204;22.580;2024-01-30T03:33:49;8.10;;;7.28;;
84614;SDS011;74845;51.204;22.580;2024-01-30T03:36:15;12.68;;;9.18;;
84614;SDS011;74845;51.204;22.580;2024-01-30T03:38:42;8.55;;;7.75;;
84614;SDS011;74845;51.204;22.580;2024-01-30T03:41:09;11.15;;;8.32;;
84614;SDS011;74845;51.204;22.580;2024-01-30T03:43:36;10.23;;;8.07;;
84614;SDS011;74845;51.204;22.580;2024-01-30T03:46:03;10.23;;;9.23;;
84614;SDS011;74845;51.204;22.580;2024-01-30T03:48:30;12.10;;;8.45;;
84614;SDS011;74845;51.204;22.580;2024-01-30T03:50:57;9.70;;;8.05;;
84614;SDS011;74845;51.204;22.580;2024-01-30T03:53:24;8.70;;;7.70;;
84614;SDS011;74845;51.204;22.580;2024-01-30T03:55:50;9.02;;;6.95;;
84614;SDS011;74845;51.204;22.580;2024-01-30T03:58:17;8.27;;;7.38;;
84614;SDS011;74845;51.204;22.580;2024-01-30T04:00:44;10.75;;;8.73;;
84614;SDS011;74845;51.204;22.580;2024-01-30T04:03:11;8.95;;;7.15;;
84614;SDS011;74845;51.204;22.580;2024-01-30T04:05:38;7.85;;;7.05;;
84614;SDS011;74845;51.204;22.580;2024-01-30T04:08:05;8.50;;;7.72;;
84614;SDS011;74845;51.204;22.580;2024-01-30T04:10:32;7.65;;;6.85;;
84614;SDS011;74845;51.204;22.580;2024-01-30T04:12:59;7.38;;;6.25;;
84614;SDS011;74845;51.204;22.580;2024-01-30T04:15:26;9.30;;;8.05;;
84614;SDS011;74845;51.204;22.580;2024-01-30T04:17:53;7.35;;;6.43;;
84614;SDS011;74845;51.204;22.580;2024-01-30T04:20:20;8.52;;;7.53;;
84614;SDS011;74845;51.204;22.580;2024-01-30T04:22:47;9.43;;;7.78;;
84614;SDS011;74845;51.204;22.580;2024-01-30T04:25:13;12.63;;;7.75;;
84614;SDS011;74845;51.204;22.580;2024-01-30T04:27:40;13.70;;;8.95;;
84614;SDS011;74845;51.204;22.580;2024-01-30T04:30:07;10.23;;;8.75;;
84614;SDS011;74845;51.204;22.580;2024-01-30T04:32:35;8.23;;;7.35;;
84614;SDS011;74845;51.204;22.580;2024-01-30T04:35:03;10.88;;;7.40;;
84614;SDS011;74845;51.204;22.580;2024-01-30T04:37:36;15.32;;;10.05;;
84614;SDS011;74845;51.204;22.580;2024-01-30T04:40:03;16.08;;;11.90;;
84614;SDS011;74845;51.204;22.580;2024-01-30T04:42:31;17.45;;;11.23;;
84614;SDS011;74845;51.204;22.580;2024-01-30T04:44:58;14.50;;;9.75;;
84614;SDS011;74845;51.204;22.580;2024-01-30T04:47:25;13.15;;;9.50;;
84614;SDS011;74845;51.204;22.580;2024-01-30T04:49:52;8.80;;;7.90;;
84614;SDS011;74845;51.204;22.580;2024-01-30T04:52:19;9.90;;;7.50;;
84614;SDS011;74845;51.204;22.580;2024-01-30T04:54:46;8.13;;;7.25;;
84614;SDS011;74845;51.204;22.580;2024-01-30T04:57:13;10.75;;;7.47;;
84614;SDS011;74845;51.204;22.580;2024-01-30T04:59:39;11.77;;;8.63;;
84614;SDS011;74845;51.204;22.580;2024-01-30T05:02:06;8.70;;;6.55;;
84614;SDS011;74845;51.204;22.580;2024-01-30T05:04:33;9.20;;;7.68;;
84614;SDS011;74845;51.204;22.580;2024-01-30T05:07:00;7.97;;;6.72;;
84614;SDS011;74845;51.204;22.580;2024-01-30T05:09:27;7.32;;;6.30;;
84614;SDS011;74845;51.204;22.580;2024-01-30T05:11:54;10.40;;;8.13;;
84614;SDS011;74845;51.204;22.580;2024-01-30T05:14:21;9.05;;;6.85;;
84614;SDS011;74845;51.204;22.580;2024-01-30T05:16:48;10.57;;;8.60;;
84614;SDS011;74845;51.204;22.580;2024-01-30T05:19:15;10.13;;;7.25;;
84614;SDS011;74845;51.204;22.580;2024-01-30T05:21:42;7.45;;;6.45;;
84614;SDS011;74845;51.204;22.580;2024-01-30T05:24:09;9.02;;;7.40;;
84614;SDS011;74845;51.204;22.580;2024-01-30T05:26:36;7.80;;;6.80;;
84614;SDS011;74845;51.204;22.580;2024-01-30T05:29:04;7.60;;;5.78;;
84614;SDS011;74845;51.204;22.580;2024-01-30T05:31:31;7.55;;;6.82;;
84614;SDS011;74845;51.204;22.580;2024-01-30T05:33:59;8.27;;;6.60;;
84614;SDS011;74845;51.204;22.580;2024-01-30T05:36:26;8.52;;;6.78;;
84614;SDS011;74845;51.204;22.580;2024-01-30T05:38:52;9.38;;;6.80;;
84614;SDS011;74845;51.204;22.580;2024-01-30T05:41:19;8.50;;;7.13;;
84614;SDS011;74845;51.204;22.580;2024-01-30T05:43:47;7.93;;;7.13;;
84614;SDS011;74845;51.204;22.580;2024-01-30T05:46:14;5.97;;;5.40;;
84614;SDS011;74845;51.204;22.580;2024-01-30T05:48:41;8.93;;;7.05;;
84614;SDS011;74845;51.204;22.580;2024-01-30T05:51:08;7.95;;;7.15;;
84614;SDS011;74845;51.204;22.580;2024-01-30T05:53:35;7.30;;;6.22;;
84614;SDS011;74845;51.204;22.580;2024-01-30T05:56:02;9.02;;;8.13;;
84614;SDS011;74845;51.204;22.580;2024-01-30T05:58:29;8.65;;;6.35;;
84614;SDS011;74845;51.204;22.580;2024-01-30T06:00:57;8.70;;;6.80;;
84614;SDS011;74845;51.204;22.580;2024-01-30T06:03:24;8.15;;;7.35;;
84614;SDS011;74845;51.204;22.580;2024-01-30T06:05:51;7.72;;;6.68;;
84614;SDS011;74845;51.204;22.580;2024-01-30T06:08:18;9.88;;;6.90;;
84614;SDS011;74845;51.204;22.580;2024-01-30T06:10:45;7.85;;;6.10;;
84614;SDS011;74845;51.204;22.580;2024-01-30T06:13:12;8.23;;;6.60;;
84614;SDS011;74845;51.204;22.580;2024-01-30T06:15:39;6.95;;;6.25;;
84614;SDS011;74845;51.204;22.580;2024-01-30T06:18:06;5.80;;;4.35;;
84614;SDS011;74845;51.204;22.580;2024-01-30T06:20:33;8.60;;;6.80;;
84614;SDS011;74845;51.204;22.580;2024-01-30T06:23:00;7.85;;;6.30;;
84614;SDS011;74845;51.204;22.580;2024-01-30T06:25:27;7.90;;;7.10;;
84614;SDS011;74845;51.204;22.580;2024-01-30T06:27:54;13.20;;;8.73;;
84614;SDS011;74845;51.204;22.580;2024-01-30T06:30:21;9.18;;;8.25;;
84614;SDS011;74845;51.204;22.580;2024-01-30T06:32:47;9.30;;;7.65;;
84614;SDS011;74845;51.204;22.580;2024-01-30T06:35:15;9.13;;;6.40;;
84614;SDS011;74845;51.204;22.580;2024-01-30T06:37:43;7.60;;;6.55;;
84614;SDS011;74845;51.204;22.580;2024-01-30T06:40:10;9.75;;;6.25;;
84614;SDS011;74845;51.204;22.580;2024-01-30T06:42:38;7.82;;;7.05;;
84614;SDS011;74845;51.204;22.580;2024-01-30T06:45:05;7.40;;;5.78;;
84614;SDS011;74845;51.204;22.580;2024-01-30T06:47:32;7.03;;;6.32;;
84614;SDS011;74845;51.204;22.580;2024-01-30T06:49:59;8.10;;;6.10;;
84614;SDS011;74845;51.204;22.580;2024-01-30T06:52:26;6.20;;;5.25;;
84614;SDS011;74845;51.204;22.580;2024-01-30T06:54:53;7.70;;;6.95;;
84614;SDS011;74845;51.204;22.580;2024-01-30T06:57:21;6.80;;;6.10;;
84614;SDS011;74845;51.204;22.580;2024-01-30T06:59:47;9.90;;;6.93;;
84614;SDS011;74845;51.204;22.580;2024-01-30T07:02:14;5.75;;;5.25;;
84614;SDS011;74845;51.204;22.580;2024-01-30T07:04:41;10.32;;;6.50;;
84614;SDS011;74845;51.204;22.580;2024-01-30T07:07:12;7.85;;;7.05;;
84614;SDS011;74845;51.204;22.580;2024-01-30T07:09:42;7.38;;;6.20;;
84614;SDS011;74845;51.204;22.580;2024-01-30T07:12:08;7.25;;;6.45;;
84614;SDS011;74845;51.204;22.580;2024-01-30T07:14:35;8.18;;;6.78;;
84614;SDS011;74845;51.204;22.580;2024-01-30T07:17:02;7.15;;;6.45;;
84614;SDS011;74845;51.204;22.580;2024-01-30T07:19:29;7.38;;;6.78;;
84614;SDS011;74845;51.204;22.580;2024-01-30T07:21:56;10.25;;;8.82;;
84614;SDS011;74845;51.204;22.580;2024-01-30T07:24:23;10.73;;;9.63;;
84614;SDS011;74845;51.204;22.580;2024-01-30T07:26:49;13.15;;;11.88;;
84614;SDS011;74845;51.204;22.580;2024-01-30T07:29:16;11.20;;;10.15;;
84614;SDS011;74845;51.204;22.580;2024-01-30T07:31:43;10.32;;;9.32;;
84614;SDS011;74845;51.204;22.580;2024-01-30T07:34:10;10.45;;;9.45;;
84614;SDS011;74845;51.204;22.580;2024-01-30T07:36:37;11.15;;;10.25;;
84614;SDS011;74845;51.204;22.580;2024-01-30T07:39:05;10.35;;;9.40;;
84614;SDS011;74845;51.204;22.580;2024-01-30T07:41:32;11.73;;;10.75;;
84614;SDS011;74845;51.204;22.580;2024-01-30T07:43:59;11.25;;;10.25;;
84614;SDS011;74845;51.204;22.580;2024-01-30T07:46:25;11.80;;;10.63;;
84614;SDS011;74845;51.204;22.580;2024-01-30T07:48:52;10.40;;;9.52;;
84614;SDS011;74845;51.204;22.580;2024-01-30T07:51:21;11.85;;;10.65;;
84614;SDS011;74845;51.204;22.580;2024-01-30T07:53:48;12.35;;;11.00;;
84614;SDS011;74845;51.204;22.580;2024-01-30T07:56:14;9.90;;;9.05;;
84614;SDS011;74845;51.204;22.580;2024-01-30T07:58:42;11.23;;;9.82;;
84614;SDS011;74845;51.204;22.580;2024-01-30T08:01:09;9.30;;;8.52;;
84614;SDS011;74845;51.204;22.580;2024-01-30T08:03:36;11.30;;;10.18;;
84614;SDS011;74845;51.204;22.580;2024-01-30T08:06:03;13.13;;;11.98;;
84614;SDS011;74845;51.204;22.580;2024-01-30T08:08:30;13.23;;;11.93;;
84614;SDS011;74845;51.204;22.580;2024-01-30T08:10:57;12.48;;;10.23;;
84614;SDS011;74845;51.204;22.580;2024-01-30T08:13:24;15.00;;;13.30;;
84614;SDS011;74845;51.204;22.580;2024-01-30T08:15:51;10.60;;;9.52;;
84614;SDS011;74845;51.204;22.580;2024-01-30T08:18:18;9.70;;;8.70;;
84614;SDS011;74845;51.204;22.580;2024-01-30T08:20:45;11.35;;;8.43;;
84614;SDS011;74845;51.204;22.580;2024-01-30T08:23:12;9.27;;;8.45;;
84614;SDS011;74845;51.204;22.580;2024-01-30T08:25:38;9.65;;;8.65;;
84614;SDS011;74845;51.204;22.580;2024-01-30T08:28:05;8.63;;;7.70;;
84614;SDS011;74845;51.204;22.580;2024-01-30T08:30:34;8.73;;;7.75;;
84614;SDS011;74845;51.204;22.580;2024-01-30T08:33:00;10.02;;;9.02;;
84614;SDS011;74845;51.204;22.580;2024-01-30T08:35:27;9.68;;;8.68;;
84614;SDS011;74845;51.204;22.580;2024-01-30T08:37:54;10.85;;;8.43;;
84614;SDS011;74845;51.204;22.580;2024-01-30T08:40:21;8.55;;;7.85;;
84614;SDS011;74845;51.204;22.580;2024-01-30T08:42:48;10.57;;;9.38;;
84614;SDS011;74845;51.204;22.580;2024-01-30T08:45:15;9.52;;;8.63;;
84614;SDS011;74845;51.204;22.580;2024-01-30T08:47:42;10.88;;;9.95;;
84614;SDS011;74845;51.204;22.580;2024-01-30T08:50:09;11.95;;;10.77;;
84614;SDS011;74845;51.204;22.580;2024-01-30T08:52:36;11.65;;;10.52;;
84614;SDS011;74845;51.204;22.580;2024-01-30T08:55:03;11.43;;;10.50;;
84614;SDS011;74845;51.204;22.580;2024-01-30T08:57:31;11.40;;;8.98;;
84614;SDS011;74845;51.204;22.580;2024-01-30T08:59:57;9.90;;;9.05;;
84614;SDS011;74845;51.204;22.580;2024-01-30T09:02:24;9.68;;;8.77;;
84614;SDS011;74845;51.204;22.580;2024-01-30T09:04:51;10.27;;;8.93;;
84614;SDS011;74845;51.204;22.580;2024-01-30T09:07:18;9.55;;;8.65;;
84614;SDS011;74845;51.204;22.580;2024-01-30T09:09:46;10.25;;;9.25;;
84614;SDS011;74845;51.204;22.580;2024-01-30T09:12:12;11.25;;;10.15;;
84614;SDS011;74845;51.204;22.580;2024-01-30T09:14:41;9.93;;;9.13;;
84614;SDS011;74845;51.204;22.580;2024-01-30T09:17:08;9.20;;;8.30;;
84614;SDS011;74845;51.204;22.580;2024-01-30T09:19:35;9.65;;;8.70;;
84614;SDS011;74845;51.204;22.580;2024-01-30T09:22:02;10.73;;;9.73;;
84614;SDS011;74845;51.204;22.580;2024-01-30T09:24:29;10.27;;;9.30;;
84614;SDS011;74845;51.204;22.580;2024-01-30T09:26:56;9.02;;;8.10;;
84614;SDS011;74845;51.204;22.580;2024-01-30T09:29:23;8.98;;;8.15;;
84614;SDS011;74845;51.204;22.580;2024-01-30T09:31:50;10.13;;;9.18;;
84614;SDS011;74845;51.204;22.580;2024-01-30T09:34:17;8.65;;;7.90;;
84614;SDS011;74845;51.204;22.580;2024-01-30T09:36:44;10.05;;;9.13;;
84614;SDS011;74845;51.204;22.580;2024-01-30T09:39:11;12.70;;;11.55;;
84614;SDS011;74845;51.204;22.580;2024-01-30T09:44:36;7.13;;;6.50;;
84614;SDS011;74845;51.204;22.580;2024-01-30T09:47:04;11.45;;;9.60;;
84614;SDS011;74845;51.204;22.580;2024-01-30T09:49:32;11.73;;;9.17;;
84614;SDS011;74845;51.204;22.580;2024-01-30T09:52:02;7.78;;;7.07;;
84614;SDS011;74845;51.204;22.580;2024-01-30T09:54:30;9.10;;;8.30;;
84614;SDS011;74845;51.204;22.580;2024-01-30T09:57:02;9.20;;;8.40;;
84614;SDS011;74845;51.204;22.580;2024-01-30T09:59:29;11.25;;;10.25;;
84614;SDS011;74845;51.204;22.580;2024-01-30T10:01:56;14.27;;;13.00;;
84614;SDS011;74845;51.204;22.580;2024-01-30T10:04:23;14.32;;;13.07;;
84614;SDS011;74845;51.204;22.580;2024-01-30T10:06:50;13.80;;;12.68;;
84614;SDS011;74845;51.204;22.580;2024-01-30T10:09:17;13.05;;;11.90;;
84614;SDS011;74845;51.204;22.580;2024-01-30T10:11:44;8.95;;;8.18;;
84614;SDS011;74845;51.204;22.580;2024-01-30T10:14:11;9.82;;;9.02;;
84614;SDS011;74845;51.204;22.580;2024-01-30T10:16:37;13.85;;;12.65;;
84614;SDS011;74845;51.204;22.580;2024-01-30T10:19:04;14.65;;;13.48;;
84614;SDS011;74845;51.204;22.580;2024-01-30T10:21:31;10.65;;;9.50;;
84614;SDS011;74845;51.204;22.580;2024-01-30T10:23:58;11.38;;;10.45;;
84614;SDS011;74845;51.204;22.580;2024-01-30T10:26:25;13.13;;;11.93;;
84614;SDS011;74845;51.204;22.580;2024-01-30T10:28:52;12.02;;;10.82;;
84614;SDS011;74845;51.204;22.580;2024-01-30T10:31:19;11.57;;;10.35;;
84614;SDS011;74845;51.204;22.580;2024-01-30T10:33:46;11.95;;;10.90;;
84614;SDS011;74845;51.204;22.580;2024-01-30T10:36:13;15.38;;;14.02;;
84614;SDS011;74845;51.204;22.580;2024-01-30T10:38:46;12.70;;;11.52;;
84614;SDS011;74845;51.204;22.580;2024-01-30T10:41:18;19.73;;;17.90;;
84614;SDS011;74845;51.204;22.580;2024-01-30T10:43:55;14.05;;;12.75;;
84614;SDS011;74845;51.204;22.580;2024-01-30T10:46:31;9.20;;;8.50;;
84614;SDS011;74845;51.204;22.580;2024-01-30T10:48:58;9.35;;;8.65;;
84614;SDS011;74845;51.204;22.580;2024-01-30T10:51:27;8.10;;;7.28;;
84614;SDS011;74845;51.204;22.580;2024-01-30T10:53:55;9.65;;;8.65;;
84614;SDS011;74845;51.204;22.580;2024-01-30T10:56:24;11.57;;;10.57;;
84614;SDS011;74845;51.204;22.580;2024-01-30T10:58:52;11.60;;;10.48;;
84614;SDS011;74845;51.204;22.580;2024-01-30T11:01:20;11.23;;;10.07;;
84614;SDS011;74845;51.204;22.580;2024-01-30T11:03:51;9.65;;;8.77;;
84614;SDS011;74845;51.204;22.580;2024-01-30T11:06:23;10.45;;;9.45;;
84614;SDS011;74845;51.204;22.580;2024-01-30T11:09:10;10.45;;;9.52;;
84614;SDS011;74845;51.204;22.580;2024-01-30T11:11:52;8.38;;;7.68;;
84614;SDS011;74845;51.204;22.580;2024-01-30T11:14:31;8.20;;;7.53;;
84614;SDS011;74845;51.204;22.580;2024-01-30T11:16:59;8.00;;;7.40;;
84614;SDS011;74845;51.204;22.580;2024-01-30T11:19:26;8.60;;;7.80;;
84614;SDS011;74845;51.204;22.580;2024-01-30T11:21:54;9.10;;;8.25;;
84614;SDS011;74845;51.204;22.580;2024-01-30T11:24:23;8.02;;;7.43;;
84614;SDS011;74845;51.204;22.580;2024-01-30T11:26:57;8.65;;;7.75;;
84614;SDS011;74845;51.204;22.580;2024-01-30T11:29:26;8.15;;;7.28;;
84614;SDS011;74845;51.204;22.580;2024-01-30T11:31:54;7.87;;;7.20;;
84614;SDS011;74845;51.204;22.580;2024-01-30T11:34:21;9.45;;;8.55;;
84614;SDS011;74845;51.204;22.580;2024-01-30T11:36:56;10.10;;;9.13;;
84614;SDS011;74845;51.204;22.580;2024-01-30T11:39:29;12.95;;;11.75;;
84614;SDS011;74845;51.204;22.580;2024-01-30T11:41:56;13.43;;;12.23;;
84614;SDS011;74845;51.204;22.580;2024-01-30T11:44:25;11.95;;;10.75;;
84614;SDS011;74845;51.204;22.580;2024-01-30T11:46:52;10.90;;;9.90;;
84614;SDS011;74845;51.204;22.580;2024-01-30T11:49:19;11.02;;;8.88;;
84614;SDS011;74845;51.204;22.580;2024-01-30T11:51:46;9.00;;;8.13;;
84614;SDS011;74845;51.204;22.580;2024-01-30T11:54:15;10.35;;;9.25;;
84614;SDS011;74845;51.204;22.580;2024-01-30T11:56:42;9.52;;;8.50;;
84614;SDS011;74845;51.204;22.580;2024-01-30T11:59:09;10.82;;;9.73;;
84614;SDS011;74845;51.204;22.580;2024-01-30T12:01:36;7.88;;;7.07;;
84614;SDS011;74845;51.204;22.580;2024-01-30T12:04:03;8.25;;;7.43;;
84614;SDS011;74845;51.204;22.580;2024-01-30T12:06:35;10.02;;;9.15;;
84614;SDS011;74845;51.204;22.580;2024-01-30T12:09:03;17.48;;;15.73;;
84614;SDS011;74845;51.204;22.580;2024-01-30T12:11:48;12.60;;;11.40;;
84614;SDS011;74845;51.204;22.580;2024-01-30T12:14:16;11.80;;;10.70;;
84614;SDS011;74845;51.204;22.580;2024-01-30T12:16:43;9.45;;;7.70;;
84614;SDS011;74845;51.204;22.580;2024-01-30T12:19:24;10.75;;;9.10;;
84614;SDS011;74845;51.204;22.580;2024-01-30T12:21:58;10.63;;;9.52;;
84614;SDS011;74845;51.204;22.580;2024-01-30T12:24:26;10.63;;;9.63;;
84614;SDS011;74845;51.204;22.580;2024-01-30T12:26:57;9.13;;;8.27;;
84614;SDS011;74845;51.204;22.580;2024-01-30T12:29:25;10.10;;;8.98;;
84614;SDS011;74845;51.204;22.580;2024-01-30T12:31:56;9.70;;;8.75;;
84614;SDS011;74845;51.204;22.580;2024-01-30T12:34:24;11.00;;;9.88;;
84614;SDS011;74845;51.204;22.580;2024-01-30T12:36:51;9.73;;;8.82;;
84614;SDS011;74845;51.204;22.580;2024-01-30T12:39:18;9.95;;;9.02;;
84614;SDS011;74845;51.204;22.580;2024-01-30T12:41:45;10.02;;;9.10;;
84614;SDS011;74845;51.204;22.580;2024-01-30T12:44:13;9.25;;;8.50;;
84614;SDS011;74845;51.204;22.580;2024-01-30T12:46:40;9.40;;;8.50;;
84614;SDS011;74845;51.204;22.580;2024-01-30T12:49:07;12.15;;;10.68;;
84614;SDS011;74845;51.204;22.580;2024-01-30T12:51:34;11.02;;;9.18;;
84614;SDS011;74845;51.204;22.580;2024-01-30T12:54:05;11.35;;;10.25;;
84614;SDS011;74845;51.204;22.580;2024-01-30T12:56:32;10.93;;;9.82;;
84614;SDS011;74845;51.204;22.580;2024-01-30T12:59:00;10.63;;;9.70;;
84614;SDS011;74845;51.204;22.580;2024-01-30T13:01:26;10.55;;;9.55;;
84614;SDS011;74845;51.204;22.580;2024-01-30T13:03:53;10.68;;;9.65;;
84614;SDS011;74845;51.204;22.580;2024-01-30T13:06:21;10.55;;;9.52;;
84614;SDS011;74845;51.204;22.580;2024-01-30T13:08:48;10.02;;;9.13;;
84614;SDS011;74845;51.204;22.580;2024-01-30T13:11:14;11.05;;;9.93;;
84614;SDS011;74845;51.204;22.580;2024-01-30T13:13:47;10.60;;;9.55;;
84614;SDS011;74845;51.204;22.580;2024-01-30T13:16:14;11.18;;;10.00;;
84614;SDS011;74845;51.204;22.580;2024-01-30T13:18:41;10.93;;;9.05;;
84614;SDS011;74845;51.204;22.580;2024-01-30T13:21:08;11.35;;;9.32;;
84614;SDS011;74845;51.204;22.580;2024-01-30T13:23:34;9.77;;;8.93;;
84614;SDS011;74845;51.204;22.580;2024-01-30T13:26:01;9.23;;;8.40;;
84614;SDS011;74845;51.204;22.580;2024-01-30T13:28:28;10.43;;;9.30;;
84614;SDS011;74845;51.204;22.580;2024-01-30T13:30:55;10.90;;;9.90;;
84614;SDS011;74845;51.204;22.580;2024-01-30T13:33:22;9.52;;;8.60;;
84614;SDS011;74845;51.204;22.580;2024-01-30T13:35:49;11.27;;;9.95;;
84614;SDS011;74845;51.204;22.580;2024-01-30T13:38:16;11.10;;;10.02;;
84614;SDS011;74845;51.204;22.580;2024-01-30T13:40:43;11.48;;;10.10;;
84614;SDS011;74845;51.204;22.580;2024-01-30T13:43:10;10.65;;;9.52;;
84614;SDS011;74845;51.204;22.580;2024-01-30T13:45:38;12.48;;;9.82;;
84614;SDS011;74845;51.204;22.580;2024-01-30T13:48:05;12.20;;;10.93;;
84614;SDS011;74845;51.204;22.580;2024-01-30T13:50:32;10.40;;;9.32;;
84614;SDS011;74845;51.204;22.580;2024-01-30T13:52:59;11.10;;;9.85;;
84614;SDS011;74845;51.204;22.580;2024-01-30T13:55:27;10.90;;;9.80;;
84614;SDS011;74845;51.204;22.580;2024-01-30T13:57:54;10.98;;;9.90;;
84614;SDS011;74845;51.204;22.580;2024-01-30T14:00:22;9.80;;;8.80;;
84614;SDS011;74845;51.204;22.580;2024-01-30T14:02:49;11.80;;;10.60;;
84614;SDS011;74845;51.204;22.580;2024-01-30T14:05:16;11.90;;;10.23;;
84614;SDS011;74845;51.204;22.580;2024-01-30T14:07:44;24.17;;;16.00;;
84614;SDS011;74845;51.204;22.580;2024-01-30T14:10:11;32.20;;;20.27;;
84614;SDS011;74845;51.204;22.580;2024-01-30T14:15:09;17.02;;;12.15;;
84614;SDS011;74845;51.204;22.580;2024-01-30T14:17:54;11.48;;;10.25;;
84614;SDS011;74845;51.204;22.580;2024-01-30T14:20:21;16.27;;;11.75;;
84614;SDS011;74845;51.204;22.580;2024-01-30T14:22:48;12.05;;;10.05;;
84614;SDS011;74845;51.204;22.580;2024-01-30T14:25:15;11.15;;;9.85;;
84614;SDS011;74845;51.204;22.580;2024-01-30T14:27:43;10.55;;;9.63;;
84614;SDS011;74845;51.204;22.580;2024-01-30T14:30:10;10.48;;;9.38;;
84614;SDS011;74845;51.204;22.580;2024-01-30T14:32:38;11.02;;;9.20;;